Observation data for Brownfield on 11/07/2019      Previous  Date       Current Mesonet Observations  Soil Data  Daily Summary Page  Observations in Plain Language
KBWS 070600Z 14008KT 14/13 A3014 RMK A01 T01360130  RH  100%=      5-min Rain = 0
KBWS 070605Z 14009KT 14/13 A3014 RMK A01 T01360130  RH  100%=      5-min Rain = 0
KBWS 070610Z 14006KT 14/13 A3014 RMK A01 T01360130  RH  100%=      5-min Rain = 0
KBWS 070615Z 12005KT 14/13 A3014 RMK A01 T01360130  RH  100%=      5-min Rain = 0
KBWS 070620Z 09002KT 14/13 A3015 RMK A01 T01370130  RH  100%=      5-min Rain = 0
KBWS 070625Z 02003KT 14/13 A3017 RMK A01 T01370130  RH  100%=      5-min Rain = 0
KBWS 070630Z 03004KT 14/13 A3016 RMK A01 T01370130  RH  100%=      5-min Rain = 0
KBWS 070635Z 04005KT 14/13 A3016 RMK A01 T01360130  RH  100%=      5-min Rain = 0
KBWS 070640Z 04005KT 14/13 A3015 RMK A01 T01360130  RH  100%=      5-min Rain = 0
KBWS 070645Z 06005KT 14/13 A3015 RMK A01 T01360130  RH  100%=      5-min Rain = 0
KBWS 070650Z 04004KT 14/13 A3015 RMK A01 T01360130  RH  100%=      5-min Rain = 0
KBWS 070655Z 04005KT 14/13 A3015 RMK A01 T01360130  RH  100%=      5-min Rain = 0
KBWS 070700Z 03005KT 14/13 A3015 RMK A01 T01360130  RH  100%=      5-min Rain = 0
KBWS 070705Z 04004KT 14/13 A3015 RMK A01 T01370131  RH  100%=      5-min Rain = 0
KBWS 070710Z 03004KT 14/13 A3015 RMK A01 T01370131  RH  100%=      5-min Rain = 0
KBWS 070715Z 02003KT 14/13 A3016 RMK A01 T01370131  RH  100%=      5-min Rain = 0
KBWS 070720Z 35002KT 14/13 A3016 RMK A01 T01370131  RH  100%=      5-min Rain = 0
KBWS 070725Z 34003KT 14/13 A3016 RMK A01 T01370131  RH  100%=      5-min Rain = 0
KBWS 070730Z 01002KT 14/13 A3015 RMK A01 T01370131  RH  100%=      5-min Rain = 0
KBWS 070735Z 35002KT 14/13 A3016 RMK A01 T01370131  RH  100%=      5-min Rain = 0
KBWS 070740Z 33004KT 14/13 A3016 RMK A01 T01370131  RH  100%=      5-min Rain = 0
KBWS 070745Z 35004KT 14/13 A3015 RMK A01 T01370131  RH  100%=      5-min Rain = 0
KBWS 070750Z 33004KT 14/13 A3016 RMK A01 T01360130  RH  100%=      5-min Rain = 0.01
KBWS 070755Z 34005KT 14/13 A3016 RMK A01 T01360130  RH  100%=      5-min Rain = 0
KBWS 070800Z 34005KT 14/13 A3016 RMK A01 T01360130  RH  100%=      5-min Rain = 0
KBWS 070805Z 35005KT 14/13 A3016 RMK A01 T01360130  RH  100%=      5-min Rain = 0
KBWS 070810Z 36006KT 14/13 A3017 RMK A01 T01350129  RH  100%=      5-min Rain = 0
KBWS 070815Z 35007KT 14/13 A3017 RMK A01 T01360130  RH  100%=      5-min Rain = 0
KBWS 070820Z 34007KT 14/13 A3017 RMK A01 T01360130  RH  100%=      5-min Rain = 0
KBWS 070825Z 35008KT 14/13 A3017 RMK A01 T01360130  RH  100%=      5-min Rain = 0
KBWS 070830Z 36008KT 14/13 A3017 RMK A01 T01360130  RH  100%=      5-min Rain = 0.02
KBWS 070835Z 34008KT 14/13 A3017 RMK A01 T01360130  RH  100%=      5-min Rain = 0
KBWS 070840Z 35009KT 14/13 A3018 RMK A01 T01370131  RH  100%=      5-min Rain = 0
KBWS 070845Z 00021G34KT 12/11 A302 RMK A01 T01210113  RH  098%=      5-min Rain = 0
KBWS 070850Z 00025G33KT 08/07 A3021 RMK A01 T00760066  RH  096%=      5-min Rain = 0
KBWS 070855Z 01025G34KT 06/06 A3021 RMK A01 T00640056  RH  097%=      5-min Rain = 0
KBWS 070900Z 36022G32KT 06/05 A302 RMK A01 T00600052  RH  097%=      5-min Rain = 0
KBWS 070905Z 36025G33KT 05/04 A3021 RMK A01 T00530044  RH  096%=      5-min Rain = 0
KBWS 070910Z 00025G32KT 05/04 A302 RMK A01 T00500040  RH  095%=      5-min Rain = 0
KBWS 070915Z 01022G32KT 05/04 A3021 RMK A01 T00490039  RH  095%=      5-min Rain = 0
KBWS 070920Z 00023G34KT 05/04 A302 RMK A01 T00470037  RH  095%=      5-min Rain = 0
KBWS 070925Z 01023G30KT 05/04 A302 RMK A01 T00450035  RH  095%=      5-min Rain = 0
KBWS 070930Z 01021G27KT 04/04 A302 RMK A01 T00440035  RH  095%=      5-min Rain = 0
KBWS 070935Z 01023G30KT 04/03 A302 RMK A01 T00430034  RH  095%=      5-min Rain = 0
KBWS 070940Z 01019G28KT 04/03 A302 RMK A01 T00420033  RH  096%=      5-min Rain = 0
KBWS 070945Z 00020G26KT 04/03 A3021 RMK A01 T00400032  RH  096%=      5-min Rain = 0
KBWS 070950Z 00017G22KT 04/03 A3021 RMK A01 T00390030  RH  096%=      5-min Rain = 0
KBWS 070955Z 01019G24KT 04/03 A3023 RMK A01 T00390030  RH  096%=      5-min Rain = 0
KBWS 071000Z 01023G30KT 04/03 A3023 RMK A01 T00350026  RH  095%=      5-min Rain = 0
KBWS 071005Z 02023G28KT 03/02 A3022 RMK A01 T00330024  RH  095%=      5-min Rain = 0
KBWS 071010Z 01020G28KT 03/02 A3023 RMK A01 T00330024  RH  096%=      5-min Rain = 0
KBWS 071015Z 01022G31KT 03/02 A3023 RMK A01 T00310023  RH  096%=      5-min Rain = 0
KBWS 071020Z 01022G32KT 03/02 A3022 RMK A01 T00300021  RH  096%=      5-min Rain = 0
KBWS 071025Z 01023G29KT 03/02 A3022 RMK A01 T00270019  RH  096%=      5-min Rain = 0
KBWS 071030Z 01021G27KT 03/02 A3023 RMK A01 T00260019  RH  096%=      5-min Rain = 0
KBWS 071035Z 01018G26KT 03/02 A3024 RMK A01 T00270020  RH  097%=      5-min Rain = 0
KBWS 071040Z 00021G30KT 03/02 A3024 RMK A01 T00260019  RH  097%=      5-min Rain = 0
KBWS 071045Z 00023G31KT 02/02 A3025 RMK A01 T00240017  RH  097%=      5-min Rain = 0
KBWS 071050Z 36020G25KT 02/02 A3026 RMK A01 T00240017  RH  096%=      5-min Rain = 0
KBWS 071055Z 00021G29KT 03/02 A3026 RMK A01 T00250017  RH  096%=      5-min Rain = 0
KBWS 071100Z 01021G31KT 02/02 A3026 RMK A01 T00240015  RH  095%=      5-min Rain = 0
KBWS 071105Z 01018G24KT 02/02 A3027 RMK A01 T00240015  RH  095%=      5-min Rain = 0
KBWS 071110Z 01018G24KT 02/01 A3027 RMK A01 T00230013  RH  095%=      5-min Rain = 0
KBWS 071115Z 01016G21KT 02/01 A3028 RMK A01 T00230013  RH  095%=      5-min Rain = 0
KBWS 071120Z 01020G30KT 02/01 A3029 RMK A01 T00220011  RH  094%=      5-min Rain = 0
KBWS 071125Z 02020G28KT 02/01 A3029 RMK A01 T00210008  RH  092%=      5-min Rain = 0
KBWS 071130Z 01019G26KT 02/01 A3029 RMK A01 T00210009  RH  092%=      5-min Rain = 0
KBWS 071135Z 01017G27KT 02/01 A303 RMK A01 T00210009  RH  093%=      5-min Rain = 0
KBWS 071140Z 00018G25KT 02/01 A3031 RMK A01 T00200009  RH  093%=      5-min Rain = 0
KBWS 071145Z 01018G26KT 02/01 A3031 RMK A01 T00190008  RH  094%=      5-min Rain = 0
KBWS 071150Z 01020G25KT 02/01 A3031 RMK A01 T00180007  RH  094%=      5-min Rain = 0
KBWS 071155Z 01018G26KT 02/01 A3031 RMK A01 T00170007  RH  094%=      5-min Rain = 0
KBWS 071200Z 02021G30KT 02/01 A3031 RMK A01 T00170006  RH  094%=      5-min Rain = 0
KBWS 071205Z 01020G27KT 02/01 A303 RMK A01 T00160006  RH  094%=      5-min Rain = 0
KBWS 071210Z 02022G29KT 02/01 A3031 RMK A01 T00150005  RH  094%=      5-min Rain = 0
KBWS 071215Z 01018G25KT 02/01 A3032 RMK A01 T00160005  RH  094%=      5-min Rain = 0
KBWS 071220Z 02020G25KT 02/01 A3032 RMK A01 T00150005  RH  094%=      5-min Rain = 0
KBWS 071225Z 02022G30KT 01/00 A3032 RMK A01 T00130003  RH  094%=      5-min Rain = 0
KBWS 071230Z 02019G26KT 01/00 A3033 RMK A01 T00130002  RH  094%=      5-min Rain = 0
KBWS 071235Z 03019G26KT 01/00 A3033 RMK A01 T00130001  RH  093%=      5-min Rain = 0
KBWS 071240Z 02021G29KT 01/M00 A3033 RMK A01 T00121001  RH  092%=      5-min Rain = 0
KBWS 071245Z 02020G29KT 01/M00 A3033 RMK A01 T00121001  RH  092%=      5-min Rain = 0
KBWS 071250Z 02021G26KT 01/00 A3033 RMK A01 T001200-0  RH  092%=      5-min Rain = 0
KBWS 071255Z 02021G31KT 01/M00 A3033 RMK A01 T00121001  RH  092%=      5-min Rain = 0
KBWS 071300Z 02020G26KT 01/M00 A3033 RMK A01 T00121001  RH  092%=      5-min Rain = 0
KBWS 071305Z 02020KT 01/M00 A3034 RMK A01 T00111001  RH  093%=      5-min Rain = 0
KBWS 071310Z 01016G22KT 01/00 A3034 RMK A01 T00120001  RH  094%=      5-min Rain = 0
KBWS 071315Z 01018KT 01/00 A3035 RMK A01 T001100-0  RH  094%=      5-min Rain = 0
KBWS 071320Z 01015G22KT 01/00 A3036 RMK A01 T00110001  RH  094%=      5-min Rain = 0
KBWS 071325Z 01019G24KT 01/M00 A3037 RMK A01 T00091002  RH  093%=      5-min Rain = 0
KBWS 071330Z 02017G24KT 01/M00 A3037 RMK A01 T00081004  RH  092%=      5-min Rain = 0
KBWS 071335Z 02017G26KT 01/M00 A3037 RMK A01 T00091004  RH  092%=      5-min Rain = 0
KBWS 071340Z 02018G25KT 01/M00 A3038 RMK A01 T00091004  RH  092%=      5-min Rain = 0
KBWS 071345Z 01018G24KT 01/M01 A3038 RMK A01 T00091005  RH  091%=      5-min Rain = 0
KBWS 071350Z 02018G24KT 01/M01 A3038 RMK A01 T00091005  RH  092%=      5-min Rain = 0
KBWS 071355Z 02017G25KT 01/M00 A3038 RMK A01 T00091004  RH  093%=      5-min Rain = 0
KBWS 071400Z 01018G23KT 01/M00 A3038 RMK A01 T00081004  RH  093%=      5-min Rain = 0
KBWS 071405Z 01017G22KT 01/M00 A3039 RMK A01 T00081003  RH  094%=      5-min Rain = 0
KBWS 071410Z 02020G26KT 01/M00 A3039 RMK A01 T00071004  RH  094%=      5-min Rain = 0
KBWS 071415Z 02020G25KT 01/M00 A3039 RMK A01 T00061004  RH  094%=      5-min Rain = 0
KBWS 071420Z 02020G27KT 01/M01 A3039 RMK A01 T00061005  RH  093%=      5-min Rain = 0
KBWS 071425Z 01019G26KT 01/M01 A304 RMK A01 T00061005  RH  093%=      5-min Rain = 0
KBWS 071430Z 02017G22KT 01/M00 A3041 RMK A01 T00061004  RH  094%=      5-min Rain = 0
KBWS 071435Z 01016KT 01/M00 A3042 RMK A01 T00061004  RH  094%=      5-min Rain = 0
KBWS 071440Z 01016G23KT 01/M00 A3042 RMK A01 T00061003  RH  094%=      5-min Rain = 0
KBWS 071445Z 01017G23KT 01/M00 A3042 RMK A01 T00061003  RH  094%=      5-min Rain = 0
KBWS 071450Z 02018G26KT 01/M00 A3041 RMK A01 T00071003  RH  094%=      5-min Rain = 0
KBWS 071455Z 02022G29KT 01/M01 A304 RMK A01 T00051005  RH  094%=      5-min Rain = 0
KBWS 071500Z 02022G27KT 01/M01 A3039 RMK A01 T00051006  RH  093%=      5-min Rain = 0
KBWS 071505Z 02020G25KT 01/M01 A3039 RMK A01 T00061006  RH  092%=      5-min Rain = 0
KBWS 071510Z 02020G27KT 01/M01 A304 RMK A01 T00071006  RH  092%=      5-min Rain = 0
KBWS 071515Z 02020G25KT 01/M01 A304 RMK A01 T00071007  RH  091%=      5-min Rain = 0
KBWS 071520Z 02018G25KT 01/M01 A3041 RMK A01 T00071006  RH  092%=      5-min Rain = 0
KBWS 071525Z 02016G22KT 01/M01 A3042 RMK A01 T00081005  RH  092%=      5-min Rain = 0
KBWS 071530Z 01017G24KT 01/M01 A3042 RMK A01 T00081005  RH  092%=      5-min Rain = 0
KBWS 071535Z 01017G23KT 01/M01 A3042 RMK A01 T00071006  RH  093%=      5-min Rain = 0
KBWS 071540Z 01016G21KT 01/M00 A3042 RMK A01 T00071004  RH  093%=      5-min Rain = 0
KBWS 071545Z 02018G24KT 01/M01 A3043 RMK A01 T00071005  RH  093%=      5-min Rain = 0
KBWS 071550Z 02021G27KT 01/M01 A3043 RMK A01 T00061007  RH  092%=      5-min Rain = 0
KBWS 071555Z 02020G26KT 01/M01 A3043 RMK A01 T00061006  RH  092%=      5-min Rain = 0
KBWS 071600Z 02021G27KT 01/M01 A3042 RMK A01 T00081005  RH  092%=      5-min Rain = 0
KBWS 071605Z 02019G25KT 01/M01 A3042 RMK A01 T00081005  RH  092%=      5-min Rain = 0
KBWS 071610Z 01019G26KT 01/M01 A3043 RMK A01 T00081005  RH  092%=      5-min Rain = 0
KBWS 071615Z 00017G24KT 01/M01 A3043 RMK A01 T00071005  RH  093%=      5-min Rain = 0
KBWS 071620Z 02015G22KT 01/M00 A3044 RMK A01 T00081004  RH  093%=      5-min Rain = 0
KBWS 071625Z 02018G23KT 01/M01 A3044 RMK A01 T00071006  RH  092%=      5-min Rain = 0
KBWS 071630Z 02017G22KT 01/M00 A3044 RMK A01 T00081004  RH  092%=      5-min Rain = 0
KBWS 071635Z 03018G24KT 01/M00 A3043 RMK A01 T00081004  RH  092%=      5-min Rain = 0
KBWS 071640Z 02017KT 01/M00 A3043 RMK A01 T00081004  RH  093%=      5-min Rain = 0
KBWS 071645Z 02016G21KT 01/M00 A3043 RMK A01 T00081002  RH  094%=      5-min Rain = 0
KBWS 071650Z 02018KT 01/M00 A3043 RMK A01 T00081003  RH  093%=      5-min Rain = 0
KBWS 071655Z 02017G23KT 01/M00 A3044 RMK A01 T00081003  RH  093%=      5-min Rain = 0
KBWS 071700Z 03018G23KT 01/M00 A3044 RMK A01 T00081004  RH  093%=      5-min Rain = 0
KBWS 071705Z 03015KT 01/M00 A3044 RMK A01 T00101002  RH  093%=      5-min Rain = 0
KBWS 071710Z 02014G19KT 01/M00 A3044 RMK A01 T00101001  RH  093%=      5-min Rain = 0
KBWS 071715Z 01014G20KT 01/M00 A3044 RMK A01 T00101001  RH  094%=      5-min Rain = 0
KBWS 071720Z 02016G21KT 01/M00 A3044 RMK A01 T00091002  RH  094%=      5-min Rain = 0
KBWS 071725Z 03016G21KT 01/M00 A3044 RMK A01 T00091002  RH  093%=      5-min Rain = 0
KBWS 071730Z 03015G22KT 01/M00 A3044 RMK A01 T00101002  RH  093%=      5-min Rain = 0
KBWS 071735Z 03015G22KT 01/M00 A3043 RMK A01 T00111001  RH  093%=      5-min Rain = 0
KBWS 071740Z 02014G20KT 01/00 A3043 RMK A01 T00130001  RH  093%=      5-min Rain = 0
KBWS 071745Z 00016G21KT 01/M00 A3043 RMK A01 T00101002  RH  093%=      5-min Rain = 0
KBWS 071750Z 01015KT 01/M00 A3043 RMK A01 T00101002  RH  093%=      5-min Rain = 0
KBWS 071755Z 01016G21KT 01/M00 A3044 RMK A01 T00101002  RH  093%=      5-min Rain = 0
KBWS 071800Z 01015KT 01/M00 A3044 RMK A01 T00101002  RH  092%=      5-min Rain = 0
KBWS 071805Z 02015G20KT 01/M00 A3044 RMK A01 T00101002  RH  092%=      5-min Rain = 0
KBWS 071810Z 01015G20KT 01/M00 A3044 RMK A01 T00101003  RH  092%=      5-min Rain = 0
KBWS 071815Z 01014G19KT 01/M00 A3045 RMK A01 T00101003  RH  092%=      5-min Rain = 0
KBWS 071820Z 01016KT 01/M00 A3045 RMK A01 T00111003  RH  091%=      5-min Rain = 0
KBWS 071825Z 00016G22KT 01/M00 A3044 RMK A01 T00121003  RH  091%=      5-min Rain = 0
KBWS 071830Z 00015G20KT 01/M00 A3044 RMK A01 T00101003  RH  092%=      5-min Rain = 0
KBWS 071835Z 01014KT 01/M00 A3044 RMK A01 T00121001  RH  092%=      5-min Rain = 0
KBWS 071840Z 00015G21KT 01/M00 A3044 RMK A01 T00101002  RH  092%=      5-min Rain = 0
KBWS 071845Z 01016G21KT 01/M00 A3043 RMK A01 T00101002  RH  093%=      5-min Rain = 0
KBWS 071850Z 02015KT 01/M00 A3043 RMK A01 T00101001  RH  093%=      5-min Rain = 0
KBWS 071855Z 02013G20KT 01/M00 A3043 RMK A01 T00111001  RH  093%=      5-min Rain = 0
KBWS 071900Z 01016KT 01/M00 A3043 RMK A01 T00091002  RH  093%=      5-min Rain = 0
KBWS 071905Z 02016G21KT 01/M00 A3042 RMK A01 T00101001  RH  093%=      5-min Rain = 0
KBWS 071910Z 02017KT 01/M00 A3041 RMK A01 T00101002  RH  092%=      5-min Rain = 0
KBWS 071915Z 02018G23KT 01/M00 A3041 RMK A01 T00101001  RH  093%=      5-min Rain = 0
KBWS 071920Z 02016G21KT 01/M00 A3041 RMK A01 T00111001  RH  093%=      5-min Rain = 0
KBWS 071925Z 02018KT 01/M00 A304 RMK A01 T00101001  RH  093%=      5-min Rain = 0
KBWS 071930Z 03017KT 01/00 A304 RMK A01 T001100-0  RH  093%=      5-min Rain = 0
KBWS 071935Z 02018KT 01/M00 A304 RMK A01 T00101001  RH  094%=      5-min Rain = 0
KBWS 071940Z 03019KT 01/M00 A304 RMK A01 T00101001  RH  094%=      5-min Rain = 0
KBWS 071945Z 02017KT 01/00 A304 RMK A01 T00110000  RH  093%=      5-min Rain = 0
KBWS 071950Z 01015KT 01/M00 A304 RMK A01 T00111001  RH  093%=      5-min Rain = 0
KBWS 071955Z 01016G22KT 01/M00 A304 RMK A01 T00101002  RH  093%=      5-min Rain = 0
KBWS 072000Z 01015G20KT 01/M00 A3041 RMK A01 T00101001  RH  093%=      5-min Rain = 0
KBWS 072005Z 02013G18KT 01/00 A3041 RMK A01 T00100000  RH  094%=      5-min Rain = 0
KBWS 072010Z 02015KT 01/00 A3042 RMK A01 T001000-0  RH  094%=      5-min Rain = 0
KBWS 072015Z 02015KT 01/M00 A3041 RMK A01 T00091001  RH  094%=      5-min Rain = 0
KBWS 072020Z 02013KT 01/00 A3041 RMK A01 T00100000  RH  094%=      5-min Rain = 0
KBWS 072025Z 01014KT 01/M00 A3041 RMK A01 T00091001  RH  094%=      5-min Rain = 0
KBWS 072030Z 01013KT 01/M00 A3041 RMK A01 T00091001  RH  094%=      5-min Rain = 0
KBWS 072035Z 01014KT 01/M00 A3041 RMK A01 T00081002  RH  094%=      5-min Rain = 0
KBWS 072040Z 01015G21KT 01/M00 A3041 RMK A01 T00071002  RH  095%=      5-min Rain = 0
KBWS 072045Z 02014G19KT 01/M00 A3041 RMK A01 T00061004  RH  094%=      5-min Rain = 0
KBWS 072050Z 02016G22KT 01/M00 A304 RMK A01 T00071002  RH  094%=      5-min Rain = 0
KBWS 072055Z 01015KT 01/M00 A304 RMK A01 T00091001  RH  094%=      5-min Rain = 0
KBWS 072100Z 01013G19KT 01/M00 A3041 RMK A01 T00091001  RH  094%=      5-min Rain = 0
KBWS 072105Z 00013KT 01/M00 A3041 RMK A01 T00081002  RH  094%=      5-min Rain = 0
KBWS 072110Z 01013G18KT 01/M00 A3041 RMK A01 T00071003  RH  094%=      5-min Rain = 0
KBWS 072115Z 01012KT 01/M00 A3042 RMK A01 T00081002  RH  095%=      5-min Rain = 0
KBWS 072120Z 01013G18KT 01/M00 A3042 RMK A01 T00081002  RH  094%=      5-min Rain = 0
KBWS 072125Z 01014KT 01/M00 A3042 RMK A01 T00071003  RH  094%=      5-min Rain = 0
KBWS 072130Z 02015KT 01/M00 A3042 RMK A01 T00071004  RH  093%=      5-min Rain = 0
KBWS 072135Z 02014KT 01/M00 A3042 RMK A01 T00071004  RH  093%=      5-min Rain = 0
KBWS 072140Z 01012KT 01/M00 A3041 RMK A01 T00081002  RH  094%=      5-min Rain = 0
KBWS 072145Z 00016KT 01/M00 A3042 RMK A01 T00081004  RH  093%=      5-min Rain = 0
KBWS 072150Z 36014KT 01/M01 A3041 RMK A01 T00061005  RH  093%=      5-min Rain = 0
KBWS 072155Z 00015G20KT 01/M00 A3041 RMK A01 T00071004  RH  093%=      5-min Rain = 0
KBWS 072200Z 01014KT 01/M00 A3041 RMK A01 T00071004  RH  093%=      5-min Rain = 0
KBWS 072205Z 36015G21KT 01/M00 A304 RMK A01 T00061004  RH  094%=      5-min Rain = 0
KBWS 072210Z 00015G21KT 01/M01 A3041 RMK A01 T00051005  RH  094%=      5-min Rain = 0
KBWS 072215Z 01013KT 01/M00 A3041 RMK A01 T00061004  RH  095%=      5-min Rain = 0
KBWS 072220Z 01015KT 01/M00 A3041 RMK A01 T00051004  RH  095%=      5-min Rain = 0
KBWS 072225Z 01013G18KT 01/M00 A3042 RMK A01 T00051004  RH  094%=      5-min Rain = 0
KBWS 072230Z 01010G15KT 01/M00 A3042 RMK A01 T00071002  RH  094%=      5-min Rain = 0
KBWS 072235Z 00012G17KT 01/M00 A3043 RMK A01 T00071003  RH  094%=      5-min Rain = 0
KBWS 072240Z 36013KT 01/M00 A3042 RMK A01 T00061004  RH  094%=      5-min Rain = 0
KBWS 072245Z 36012KT 01/M00 A3042 RMK A01 T00051004  RH  094%=      5-min Rain = 0
KBWS 072250Z 00012KT 01/M00 A3043 RMK A01 T00051004  RH  095%=      5-min Rain = 0
KBWS 072255Z 01013KT 01/M00 A3043 RMK A01 T00051004  RH  095%=      5-min Rain = 0
KBWS 072300Z 00013KT 01/M00 A3043 RMK A01 T00051004  RH  095%=      5-min Rain = 0
KBWS 072305Z 00014KT 01/M00 A3043 RMK A01 T00051004  RH  095%=      5-min Rain = 0
KBWS 072310Z 01012G17KT 01/M00 A3043 RMK A01 T00051004  RH  094%=      5-min Rain = 0
KBWS 072315Z 01011G17KT 01/M00 A3043 RMK A01 T00061003  RH  095%=      5-min Rain = 0
KBWS 072320Z 00013G19KT 01/M01 A3043 RMK A01 T00051005  RH  094%=      5-min Rain = 0
KBWS 072325Z 01013KT 00/M01 A3043 RMK A01 T00041005  RH  095%=      5-min Rain = 0
KBWS 072330Z 00013KT 01/M00 A3043 RMK A01 T00061003  RH  095%=      5-min Rain = 0
KBWS 072335Z 01013KT 01/M00 A3043 RMK A01 T00061004  RH  094%=      5-min Rain = 0
KBWS 072340Z 01011G17KT 01/M00 A3043 RMK A01 T00061004  RH  094%=      5-min Rain = 0
KBWS 072345Z 01013KT 01/M01 A3043 RMK A01 T00061005  RH  094%=      5-min Rain = 0
KBWS 072350Z 01012KT 01/M00 A3043 RMK A01 T00061004  RH  094%=      5-min Rain = 0
KBWS 072355Z 01011KT 01/M00 A3043 RMK A01 T00071003  RH  094%=      5-min Rain = 0
KBWS 080000Z 01010KT 01/M00 A3043 RMK A01 T00071002  RH  094%=      5-min Rain = 0
KBWS 080005Z 36010KT 01/M00 A3043 RMK A01 T00061003  RH  095%=      5-min Rain = 0
KBWS 080010Z 01010KT 01/M00 A3043 RMK A01 T00061002  RH  095%=      5-min Rain = 0
KBWS 080015Z 01011KT 01/M00 A3043 RMK A01 T00061003  RH  095%=      5-min Rain = 0
KBWS 080020Z 01010KT 01/M00 A3043 RMK A01 T00061003  RH  095%=      5-min Rain = 0
KBWS 080025Z 01011KT 01/M00 A3043 RMK A01 T00061003  RH  095%=      5-min Rain = 0
KBWS 080030Z 01011KT 01/M00 A3043 RMK A01 T00071003  RH  094%=      5-min Rain = 0
KBWS 080035Z 01010KT 01/M00 A3043 RMK A01 T00071003  RH  094%=      5-min Rain = 0
KBWS 080040Z 01011KT 01/M00 A3043 RMK A01 T00071004  RH  094%=      5-min Rain = 0
KBWS 080045Z 01010KT 01/M00 A3044 RMK A01 T00071004  RH  094%=      5-min Rain = 0
KBWS 080050Z 01010KT 01/M00 A3044 RMK A01 T00071004  RH  094%=      5-min Rain = 0
KBWS 080055Z 01009KT 01/M00 A3044 RMK A01 T00071003  RH  094%=      5-min Rain = 0
KBWS 080100Z 01009KT 01/M00 A3044 RMK A01 T00071002  RH  095%=      5-min Rain = 0
KBWS 080105Z 01009KT 01/M00 A3043 RMK A01 T00071002  RH  095%=      5-min Rain = 0
KBWS 080110Z 01008KT 01/00 A3043 RMK A01 T000800-0  RH  095%=      5-min Rain = 0
KBWS 080115Z 00008KT 01/00 A3044 RMK A01 T000800-0  RH  096%=      5-min Rain = 0
KBWS 080120Z 01009KT 01/00 A3043 RMK A01 T000700-0  RH  096%=      5-min Rain = 0
KBWS 080125Z 02009KT 01/00 A3044 RMK A01 T000700-0  RH  096%=      5-min Rain = 0
KBWS 080130Z 00007KT 01/00 A3044 RMK A01 T00070000  RH  096%=      5-min Rain = 0
KBWS 080135Z 01007KT 01/00 A3044 RMK A01 T00080001  RH  096%=      5-min Rain = 0
KBWS 080140Z 01009KT 01/00 A3044 RMK A01 T00080001  RH  097%=      5-min Rain = 0
KBWS 080145Z 01010KT 01/00 A3044 RMK A01 T00080002  RH  097%=      5-min Rain = 0
KBWS 080150Z 02010KT 01/00 A3044 RMK A01 T00070001  RH  097%=      5-min Rain = 0
KBWS 080155Z 01008KT 01/00 A3044 RMK A01 T00080002  RH  097%=      5-min Rain = 0
KBWS 080200Z 36009KT 01/00 A3044 RMK A01 T00070001  RH  097%=      5-min Rain = 0
KBWS 080205Z 00009KT 01/00 A3044 RMK A01 T00070002  RH  097%=      5-min Rain = 0
KBWS 080210Z 01009KT 01/00 A3044 RMK A01 T00070003  RH  098%=      5-min Rain = 0
KBWS 080215Z 00009KT 01/00 A3044 RMK A01 T00080003  RH  098%=      5-min Rain = 0
KBWS 080220Z 35009KT 01/00 A3045 RMK A01 T00080003  RH  098%=      5-min Rain = 0
KBWS 080225Z 00008KT 01/00 A3045 RMK A01 T00080003  RH  098%=      5-min Rain = 0
KBWS 080230Z 01010KT 01/00 A3044 RMK A01 T00070003  RH  098%=      5-min Rain = 0
KBWS 080235Z 36009KT 01/00 A3045 RMK A01 T00070003  RH  098%=      5-min Rain = 0
KBWS 080240Z 00010KT 01/00 A3045 RMK A01 T00070003  RH  098%=      5-min Rain = 0
KBWS 080245Z 01009KT 01/00 A3045 RMK A01 T00080003  RH  098%=      5-min Rain = 0
KBWS 080250Z 00008KT 01/00 A3045 RMK A01 T00080004  RH  098%=      5-min Rain = 0
KBWS 080255Z 00007KT 01/00 A3045 RMK A01 T00080004  RH  099%=      5-min Rain = 0
KBWS 080300Z 00009KT 01/01 A3045 RMK A01 T00080005  RH  099%=      5-min Rain = 0
KBWS 080305Z 00008KT 01/00 A3046 RMK A01 T00080004  RH  099%=      5-min Rain = 0
KBWS 080310Z 01008KT 01/00 A3046 RMK A01 T00080004  RH  099%=      5-min Rain = 0
KBWS 080315Z 01008KT 01/01 A3046 RMK A01 T00080005  RH  099%=      5-min Rain = 0
KBWS 080320Z 01009KT 01/01 A3046 RMK A01 T00080005  RH  099%=      5-min Rain = 0
KBWS 080325Z 01008KT 01/01 A3046 RMK A01 T00080006  RH  099%=      5-min Rain = 0
KBWS 080330Z 01008KT 01/01 A3046 RMK A01 T00080006  RH  099%=      5-min Rain = 0
KBWS 080335Z 01008KT 01/01 A3046 RMK A01 T00080006  RH  099%=      5-min Rain = 0
KBWS 080340Z 36008KT 01/01 A3046 RMK A01 T00090007  RH  099%=      5-min Rain = 0
KBWS 080345Z 01008KT 01/01 A3046 RMK A01 T00090006  RH  099%=      5-min Rain = 0
KBWS 080350Z 00007KT 01/01 A3046 RMK A01 T00080006  RH  100%=      5-min Rain = 0
KBWS 080355Z 00007KT 01/01 A3046 RMK A01 T00080006  RH  100%=      5-min Rain = 0
KBWS 080400Z 00007KT 01/01 A3046 RMK A01 T00090007  RH  100%=      5-min Rain = 0
KBWS 080405Z 01008KT 01/01 A3046 RMK A01 T00090007  RH  100%=      5-min Rain = 0
KBWS 080410Z 01009KT 01/01 A3046 RMK A01 T00080006  RH  100%=      5-min Rain = 0
KBWS 080415Z 36009KT 01/01 A3046 RMK A01 T00090007  RH  100%=      5-min Rain = 0
KBWS 080420Z 00008KT 01/01 A3046 RMK A01 T00090007  RH  100%=      5-min Rain = 0
KBWS 080425Z 01008KT 01/01 A3046 RMK A01 T00100008  RH  100%=      5-min Rain = 0
KBWS 080430Z 01008KT 01/01 A3046 RMK A01 T00100008  RH  100%=      5-min Rain = 0
KBWS 080435Z 02008KT 01/01 A3046 RMK A01 T00110009  RH  100%=      5-min Rain = 0
KBWS 080440Z 01009KT 01/01 A3046 RMK A01 T00100008  RH  100%=      5-min Rain = 0
KBWS 080445Z 01008KT 01/01 A3046 RMK A01 T00100008  RH  100%=      5-min Rain = 0
KBWS 080450Z 02009KT 01/01 A3046 RMK A01 T00100008  RH  100%=      5-min Rain = 0
KBWS 080455Z 02008KT 01/01 A3046 RMK A01 T00100008  RH  100%=      5-min Rain = 0
KBWS 080500Z 02008KT 01/01 A3046 RMK A01 T00110009  RH  100%=      5-min Rain = 0
KBWS 080505Z 01008KT 01/01 A3046 RMK A01 T00100008  RH  100%=      5-min Rain = 0
KBWS 080510Z 02008KT 01/01 A3046 RMK A01 T00100009  RH  100%=      5-min Rain = 0
KBWS 080515Z 02009KT 01/01 A3046 RMK A01 T00100008  RH  100%=      5-min Rain = 0
KBWS 080520Z 02010KT 01/01 A3045 RMK A01 T00100008  RH  100%=      5-min Rain = 0
KBWS 080525Z 02010KT 01/01 A3045 RMK A01 T00100008  RH  100%=      5-min Rain = 0
KBWS 080530Z 02009KT 01/01 A3045 RMK A01 T00100008  RH  100%=      5-min Rain = 0
KBWS 080535Z 02009KT 01/01 A3045 RMK A01 T00100008  RH  100%=      5-min Rain = 0
KBWS 080540Z 02008KT 01/01 A3045 RMK A01 T00110009  RH  100%=      5-min Rain = 0
KBWS 080545Z 01007KT 01/01 A3045 RMK A01 T00120010  RH  100%=      5-min Rain = 0
KBWS 080550Z 01008KT 01/01 A3045 RMK A01 T00110009  RH  100%=      5-min Rain = 0
KBWS 080555Z 01006KT 01/01 A3045 RMK A01 T00110009  RH  100%=      5-min Rain = 0

Page generated in 0.0092 seconds.